sensor_id;sensor_type;location;lat;lon;timestamp;pressure;altitude;pressure_sealevel;temperature;humidity
28432;BME280;15664;51.302;7.744;2023-02-21T00:02:40;83536.00;;;-146.98;100.00
28432;BME280;15664;51.302;7.744;2023-02-21T00:05:24;83507.50;;;-146.98;100.00
28432;BME280;15664;51.302;7.744;2023-02-21T00:08:08;83546.19;;;-146.98;100.00
28432;BME280;15664;51.302;7.744;2023-02-21T00:10:52;83578.78;;;-146.98;100.00
28432;BME280;15664;51.302;7.744;2023-02-21T00:13:37;83558.41;;;-146.98;100.00
28432;BME280;15664;51.302;7.744;2023-02-21T00:16:22;83507.50;;;-146.98;100.00
28432;BME280;15664;51.302;7.744;2023-02-21T00:19:06;83507.50;;;-146.98;100.00
28432;BME280;15664;51.302;7.744;2023-02-21T00:21:50;83489.16;;;-146.98;100.00
28432;BME280;15664;51.302;7.744;2023-02-21T00:24:35;83531.94;;;-146.98;100.00
28432;BME280;15664;51.302;7.744;2023-02-21T00:27:19;83536.00;;;-146.98;100.00
28432;BME280;15664;51.302;7.744;2023-02-21T00:30:05;83556.38;;;-146.98;100.00
28432;BME280;15664;51.302;7.744;2023-02-21T00:32:49;83544.16;;;-146.98;100.00
28432;BME280;15664;51.302;7.744;2023-02-21T00:35:33;83558.41;;;-146.98;100.00
28432;BME280;15664;51.302;7.744;2023-02-21T00:38:17;83513.59;;;-146.98;100.00
28432;BME280;15664;51.302;7.744;2023-02-21T00:41:02;83511.56;;;-146.98;100.00
28432;BME280;15664;51.302;7.744;2023-02-21T00:43:47;83560.44;;;-146.98;100.00
28432;BME280;15664;51.302;7.744;2023-02-21T00:46:31;83572.66;;;-146.98;100.00
28432;BME280;15664;51.302;7.744;2023-02-21T00:49:15;83483.06;;;-146.98;100.00
28432;BME280;15664;51.302;7.744;2023-02-21T00:52:00;83507.50;;;-146.98;100.00
28432;BME280;15664;51.302;7.744;2023-02-21T00:54:44;83513.59;;;-146.98;100.00
28432;BME280;15664;51.302;7.744;2023-02-21T00:57:29;83536.00;;;-146.98;100.00
28432;BME280;15664;51.302;7.744;2023-02-21T01:00:17;83511.56;;;-146.98;100.00
28432;BME280;15664;51.302;7.744;2023-02-21T01:03:02;83523.78;;;-146.98;100.00
28432;BME280;15664;51.302;7.744;2023-02-21T01:05:46;83546.19;;;-146.98;100.00
28432;BME280;15664;51.302;7.744;2023-02-21T01:08:30;83536.00;;;-146.98;100.00
28432;BME280;15664;51.302;7.744;2023-02-21T01:11:17;83540.06;;;-146.98;100.00
28432;BME280;15664;51.302;7.744;2023-02-21T01:14:03;83474.91;;;-146.98;100.00
28432;BME280;15664;51.302;7.744;2023-02-21T01:16:48;83446.41;;;-146.98;100.00
28432;BME280;15664;51.302;7.744;2023-02-21T01:19:32;83582.84;;;-146.98;100.00
28432;BME280;15664;51.302;7.744;2023-02-21T01:22:16;83560.44;;;-146.98;100.00
28432;BME280;15664;51.302;7.744;2023-02-21T01:25:01;83560.44;;;-146.98;100.00
28432;BME280;15664;51.302;7.744;2023-02-21T01:27:45;83519.72;;;-146.98;100.00
28432;BME280;15664;51.302;7.744;2023-02-21T01:30:29;83550.25;;;-146.98;100.00
28432;BME280;15664;51.302;7.744;2023-02-21T01:33:13;83544.16;;;-146.98;100.00
28432;BME280;15664;51.302;7.744;2023-02-21T01:35:57;83529.91;;;-146.98;100.00
28432;BME280;15664;51.302;7.744;2023-02-21T01:38:41;83470.84;;;-146.98;100.00
28432;BME280;15664;51.302;7.744;2023-02-21T01:41:28;83542.13;;;-146.98;100.00
28432;BME280;15664;51.302;7.744;2023-02-21T01:44:41;83576.75;;;-146.98;100.00
28432;BME280;15664;51.302;7.744;2023-02-21T01:47:26;83523.78;;;-146.98;100.00
28432;BME280;15664;51.302;7.744;2023-02-21T01:50:18;83474.91;;;-146.98;100.00
28432;BME280;15664;51.302;7.744;2023-02-21T01:53:08;83515.63;;;-146.98;100.00
28432;BME280;15664;51.302;7.744;2023-02-21T01:55:54;83542.13;;;-146.98;100.00
28432;BME280;15664;51.302;7.744;2023-02-21T01:58:39;83523.78;;;-146.98;100.00
28432;BME280;15664;51.302;7.744;2023-02-21T02:01:37;83527.84;;;-146.98;100.00
28432;BME280;15664;51.302;7.744;2023-02-21T02:04:23;83564.53;;;-146.98;100.00
28432;BME280;15664;51.302;7.744;2023-02-21T02:07:09;83531.94;;;-146.98;100.00
28432;BME280;15664;51.302;7.744;2023-02-21T02:09:53;83572.66;;;-146.98;100.00
28432;BME280;15664;51.302;7.744;2023-02-21T02:13:06;83519.72;;;-146.98;100.00
28432;BME280;15664;51.302;7.744;2023-02-21T02:15:59;83548.22;;;-146.98;100.00
28432;BME280;15664;51.302;7.744;2023-02-21T02:18:55;83597.09;;;-146.98;100.00
28432;BME280;15664;51.302;7.744;2023-02-21T02:21:48;83556.38;;;-146.98;100.00
28432;BME280;15664;51.302;7.744;2023-02-21T02:24:40;83519.72;;;-146.98;100.00
28432;BME280;15664;51.302;7.744;2023-02-21T02:30:02;83478.97;;;-146.98;100.00
28432;BME280;15664;51.302;7.744;2023-02-21T02:38:11;83495.28;;;-146.98;100.00
28432;BME280;15664;51.302;7.744;2023-02-21T02:41:21;83523.78;;;-146.98;100.00
28432;BME280;15664;51.302;7.744;2023-02-21T02:44:08;83564.53;;;-146.98;100.00
28432;BME280;15664;51.302;7.744;2023-02-21T02:46:39;83499.34;;;-146.98;100.00
28432;BME280;15664;51.302;7.744;2023-02-21T02:49:17;83562.47;;;-146.98;100.00
28432;BME280;15664;51.302;7.744;2023-02-21T02:51:45;83580.81;;;-146.98;100.00
28432;BME280;15664;51.302;7.744;2023-02-21T02:54:11;83536.00;;;-146.98;100.00
28432;BME280;15664;51.302;7.744;2023-02-21T02:56:37;83497.31;;;-146.98;100.00
28432;BME280;15664;51.302;7.744;2023-02-21T02:59:07;83542.13;;;-146.98;100.00
28432;BME280;15664;51.302;7.744;2023-02-21T03:01:50;83525.81;;;-146.98;100.00
28432;BME280;15664;51.302;7.744;2023-02-21T03:04:29;83511.56;;;-146.98;100.00
28432;BME280;15664;51.302;7.744;2023-02-21T03:07:32;83544.16;;;-146.98;100.00
28432;BME280;15664;51.302;7.744;2023-02-21T03:10:15;83523.78;;;-146.98;100.00
28432;BME280;15664;51.302;7.744;2023-02-21T03:13:03;83572.66;;;-146.98;100.00
28432;BME280;15664;51.302;7.744;2023-02-21T03:15:43;83533.97;;;-146.98;100.00
28432;BME280;15664;51.302;7.744;2023-02-21T03:18:24;83552.31;;;-146.98;100.00
28432;BME280;15664;51.302;7.744;2023-02-21T03:20:56;83505.47;;;-146.98;100.00
28432;BME280;15664;51.302;7.744;2023-02-21T03:23:26;83544.16;;;-146.98;100.00
28432;BME280;15664;51.302;7.744;2023-02-21T03:25:55;83529.91;;;-146.98;100.00
28432;BME280;15664;51.302;7.744;2023-02-21T03:28:24;83544.16;;;-146.98;100.00
28432;BME280;15664;51.302;7.744;2023-02-21T03:30:52;83540.06;;;-146.98;100.00
28432;BME280;15664;51.302;7.744;2023-02-21T03:33:21;83544.16;;;-146.98;100.00
28432;BME280;15664;51.302;7.744;2023-02-21T03:35:48;83554.34;;;-146.98;100.00
28432;BME280;15664;51.302;7.744;2023-02-21T03:38:14;83552.31;;;-146.98;100.00
28432;BME280;15664;51.302;7.744;2023-02-21T03:40:41;83542.13;;;-146.98;100.00
28432;BME280;15664;51.302;7.744;2023-02-21T03:43:06;83525.81;;;-146.98;100.00
28432;BME280;15664;51.302;7.744;2023-02-21T03:45:38;83499.34;;;-146.98;100.00
28432;BME280;15664;51.302;7.744;2023-02-21T03:48:11;83613.41;;;-146.98;100.00
28432;BME280;15664;51.302;7.744;2023-02-21T03:50:39;83540.06;;;-146.98;100.00
28432;BME280;15664;51.302;7.744;2023-02-21T03:53:04;83540.06;;;-146.98;100.00
28432;BME280;15664;51.302;7.744;2023-02-21T03:55:32;83519.72;;;-146.98;100.00
28432;BME280;15664;51.302;7.744;2023-02-21T03:58:01;83560.44;;;-146.98;100.00
28432;BME280;15664;51.302;7.744;2023-02-21T04:00:28;83586.91;;;-146.98;100.00
28432;BME280;15664;51.302;7.744;2023-02-21T04:02:54;83558.41;;;-146.98;100.00
28432;BME280;15664;51.302;7.744;2023-02-21T04:05:38;83495.28;;;-146.98;100.00
28432;BME280;15664;51.302;7.744;2023-02-21T04:08:05;83511.56;;;-146.98;100.00
28432;BME280;15664;51.302;7.744;2023-02-21T04:10:32;83536.00;;;-146.98;100.00
28432;BME280;15664;51.302;7.744;2023-02-21T04:12:58;83544.16;;;-146.98;100.00
28432;BME280;15664;51.302;7.744;2023-02-21T04:15:23;83527.84;;;-146.98;100.00
28432;BME280;15664;51.302;7.744;2023-02-21T04:17:49;83509.53;;;-146.98;100.00
28432;BME280;15664;51.302;7.744;2023-02-21T04:20:15;83523.78;;;-146.98;100.00
28432;BME280;15664;51.302;7.744;2023-02-21T04:22:46;83597.09;;;-146.98;100.00
28432;BME280;15664;51.302;7.744;2023-02-21T04:25:13;83562.47;;;-146.98;100.00
28432;BME280;15664;51.302;7.744;2023-02-21T04:27:49;83523.78;;;-146.98;100.00
28432;BME280;15664;51.302;7.744;2023-02-21T04:30:15;83548.22;;;-146.98;100.00
28432;BME280;15664;51.302;7.744;2023-02-21T04:32:41;83550.25;;;-146.98;100.00
28432;BME280;15664;51.302;7.744;2023-02-21T04:35:11;83548.22;;;-146.98;100.00
28432;BME280;15664;51.302;7.744;2023-02-21T04:37:37;83531.94;;;-146.98;100.00
28432;BME280;15664;51.302;7.744;2023-02-21T04:40:03;83507.50;;;-146.98;100.00
28432;BME280;15664;51.302;7.744;2023-02-21T04:42:32;83515.63;;;-146.98;100.00
28432;BME280;15664;51.302;7.744;2023-02-21T04:44:57;83556.38;;;-146.98;100.00
28432;BME280;15664;51.302;7.744;2023-02-21T04:47:23;83474.91;;;-146.98;100.00
28432;BME280;15664;51.302;7.744;2023-02-21T04:49:49;83523.78;;;-146.98;100.00
28432;BME280;15664;51.302;7.744;2023-02-21T04:52:17;83556.38;;;-146.98;100.00
28432;BME280;15664;51.302;7.744;2023-02-21T04:54:46;83548.22;;;-146.98;100.00
28432;BME280;15664;51.302;7.744;2023-02-21T04:57:13;83558.41;;;-146.98;100.00
28432;BME280;15664;51.302;7.744;2023-02-21T04:59:38;83531.94;;;-146.98;100.00
28432;BME280;15664;51.302;7.744;2023-02-21T05:02:04;83560.44;;;-146.98;100.00
28432;BME280;15664;51.302;7.744;2023-02-21T05:04:30;83556.38;;;-146.98;100.00
28432;BME280;15664;51.302;7.744;2023-02-21T05:06:58;83527.84;;;-146.98;100.00
28432;BME280;15664;51.302;7.744;2023-02-21T05:09:23;83529.91;;;-146.98;100.00
28432;BME280;15664;51.302;7.744;2023-02-21T05:11:49;83529.91;;;-146.98;100.00
28432;BME280;15664;51.302;7.744;2023-02-21T05:14:14;83536.00;;;-146.98;100.00
28432;BME280;15664;51.302;7.744;2023-02-21T05:16:42;83544.16;;;-146.98;100.00
28432;BME280;15664;51.302;7.744;2023-02-21T05:19:09;83499.34;;;-146.98;100.00
28432;BME280;15664;51.302;7.744;2023-02-21T05:21:35;83511.56;;;-146.98;100.00
28432;BME280;15664;51.302;7.744;2023-02-21T05:24:05;83485.09;;;-146.98;100.00
28432;BME280;15664;51.302;7.744;2023-02-21T05:26:34;83552.31;;;-146.98;100.00
28432;BME280;15664;51.302;7.744;2023-02-21T05:29:00;83564.53;;;-146.98;100.00
28432;BME280;15664;51.302;7.744;2023-02-21T05:31:27;83552.31;;;-146.98;100.00
28432;BME280;15664;51.302;7.744;2023-02-21T05:33:53;83507.50;;;-146.98;100.00
28432;BME280;15664;51.302;7.744;2023-02-21T05:36:19;83540.06;;;-146.98;100.00
28432;BME280;15664;51.302;7.744;2023-02-21T05:38:46;83544.16;;;-146.98;100.00
28432;BME280;15664;51.302;7.744;2023-02-21T05:41:12;83499.34;;;-146.98;100.00
28432;BME280;15664;51.302;7.744;2023-02-21T05:43:37;83542.13;;;-146.98;100.00
28432;BME280;15664;51.302;7.744;2023-02-21T05:46:03;83489.16;;;-146.98;100.00
28432;BME280;15664;51.302;7.744;2023-02-21T05:48:28;83527.84;;;-146.98;100.00
28432;BME280;15664;51.302;7.744;2023-02-21T05:50:54;83505.47;;;-146.98;100.00
28432;BME280;15664;51.302;7.744;2023-02-21T05:53:19;83525.81;;;-146.98;100.00
28432;BME280;15664;51.302;7.744;2023-02-21T05:55:45;83536.00;;;-146.98;100.00
28432;BME280;15664;51.302;7.744;2023-02-21T05:58:10;83517.69;;;-146.98;100.00
28432;BME280;15664;51.302;7.744;2023-02-21T06:00:36;83513.59;;;-146.98;100.00
28432;BME280;15664;51.302;7.744;2023-02-21T06:03:01;83560.44;;;-146.98;100.00
28432;BME280;15664;51.302;7.744;2023-02-21T06:05:27;83517.69;;;-146.98;100.00
28432;BME280;15664;51.302;7.744;2023-02-21T06:07:53;83491.19;;;-146.98;100.00
28432;BME280;15664;51.302;7.744;2023-02-21T06:10:19;83540.06;;;-146.98;100.00
28432;BME280;15664;51.302;7.744;2023-02-21T06:12:44;83525.81;;;-146.98;100.00
28432;BME280;15664;51.302;7.744;2023-02-21T06:15:09;83509.53;;;-146.98;100.00
28432;BME280;15664;51.302;7.744;2023-02-21T06:17:37;83523.78;;;-146.98;100.00
28432;BME280;15664;51.302;7.744;2023-02-21T06:20:04;83503.41;;;-146.98;100.00
28432;BME280;15664;51.302;7.744;2023-02-21T06:22:30;83523.78;;;-146.98;100.00
28432;BME280;15664;51.302;7.744;2023-02-21T06:24:56;83533.97;;;-146.98;100.00
28432;BME280;15664;51.302;7.744;2023-02-21T06:27:21;83552.31;;;-146.98;100.00
28432;BME280;15664;51.302;7.744;2023-02-21T06:29:46;83499.34;;;-146.98;100.00
28432;BME280;15664;51.302;7.744;2023-02-21T06:32:11;83544.16;;;-146.98;100.00
28432;BME280;15664;51.302;7.744;2023-02-21T06:34:37;83468.81;;;-146.98;100.00
28432;BME280;15664;51.302;7.744;2023-02-21T06:37:02;83515.63;;;-146.98;100.00
28432;BME280;15664;51.302;7.744;2023-02-21T06:39:27;83519.72;;;-146.98;100.00
28432;BME280;15664;51.302;7.744;2023-02-21T06:41:53;83527.84;;;-146.98;100.00
28432;BME280;15664;51.302;7.744;2023-02-21T06:44:18;83489.16;;;-146.98;100.00
28432;BME280;15664;51.302;7.744;2023-02-21T06:46:44;83483.06;;;-146.98;100.00
28432;BME280;15664;51.302;7.744;2023-02-21T06:49:10;83550.25;;;-146.98;100.00
28432;BME280;15664;51.302;7.744;2023-02-21T06:51:38;83491.19;;;-146.98;100.00
28432;BME280;15664;51.302;7.744;2023-02-21T06:54:05;83536.00;;;-146.98;100.00
28432;BME280;15664;51.302;7.744;2023-02-21T06:56:32;83546.19;;;-146.98;100.00
28432;BME280;15664;51.302;7.744;2023-02-21T06:58:58;83501.38;;;-146.98;100.00
28432;BME280;15664;51.302;7.744;2023-02-21T07:01:26;83540.06;;;-146.98;100.00
28432;BME280;15664;51.302;7.744;2023-02-21T07:03:56;83503.41;;;-146.98;100.00
28432;BME280;15664;51.302;7.744;2023-02-21T07:06:22;83521.75;;;-146.98;100.00
28432;BME280;15664;51.302;7.744;2023-02-21T07:08:48;83509.53;;;-146.98;100.00
28432;BME280;15664;51.302;7.744;2023-02-21T07:11:15;83491.19;;;-146.98;100.00
28432;BME280;15664;51.302;7.744;2023-02-21T07:13:46;83515.63;;;-146.98;100.00
28432;BME280;15664;51.302;7.744;2023-02-21T07:16:11;83540.06;;;-146.98;100.00
28432;BME280;15664;51.302;7.744;2023-02-21T07:18:38;83519.72;;;-146.98;100.00
28432;BME280;15664;51.302;7.744;2023-02-21T07:21:04;83519.72;;;-146.98;100.00
28432;BME280;15664;51.302;7.744;2023-02-21T07:23:30;83562.47;;;-146.98;100.00
28432;BME280;15664;51.302;7.744;2023-02-21T07:25:55;83544.16;;;-146.98;100.00
28432;BME280;15664;51.302;7.744;2023-02-21T07:28:21;83533.97;;;-146.98;100.00
28432;BME280;15664;51.302;7.744;2023-02-21T07:30:47;83466.75;;;-146.98;100.00
28432;BME280;15664;51.302;7.744;2023-02-21T07:33:12;83458.63;;;-146.98;100.00
28432;BME280;15664;51.302;7.744;2023-02-21T07:35:38;83523.78;;;-146.98;100.00
28432;BME280;15664;51.302;7.744;2023-02-21T07:38:03;83515.63;;;-146.98;100.00
28432;BME280;15664;51.302;7.744;2023-02-21T07:40:29;83503.41;;;-146.98;100.00
28432;BME280;15664;51.302;7.744;2023-02-21T07:42:54;83485.09;;;-146.98;100.00
28432;BME280;15664;51.302;7.744;2023-02-21T07:45:20;83540.06;;;-146.98;100.00
28432;BME280;15664;51.302;7.744;2023-02-21T07:47:46;83470.84;;;-146.98;100.00
28432;BME280;15664;51.302;7.744;2023-02-21T07:52:40;83540.06;;;-146.98;100.00
28432;BME280;15664;51.302;7.744;2023-02-21T07:55:05;83503.41;;;-146.98;100.00
28432;BME280;15664;51.302;7.744;2023-02-21T07:57:31;83519.72;;;-146.98;100.00
28432;BME280;15664;51.302;7.744;2023-02-21T07:59:56;83503.41;;;-146.98;100.00
28432;BME280;15664;51.302;7.744;2023-02-21T08:02:22;83483.06;;;-146.98;100.00
28432;BME280;15664;51.302;7.744;2023-02-21T08:04:51;83531.94;;;-146.98;100.00
28432;BME280;15664;51.302;7.744;2023-02-21T08:07:17;83548.22;;;-146.98;100.00
28432;BME280;15664;51.302;7.744;2023-02-21T08:09:43;83505.47;;;-146.98;100.00
28432;BME280;15664;51.302;7.744;2023-02-21T08:12:08;83489.16;;;-146.98;100.00
28432;BME280;15664;51.302;7.744;2023-02-21T08:14:34;83458.63;;;-146.98;100.00
28432;BME280;15664;51.302;7.744;2023-02-21T08:16:59;83548.22;;;-146.98;100.00
28432;BME280;15664;51.302;7.744;2023-02-21T08:19:24;83491.19;;;-146.98;100.00
28432;BME280;15664;51.302;7.744;2023-02-21T08:21:50;83495.28;;;-146.98;100.00
28432;BME280;15664;51.302;7.744;2023-02-21T08:24:17;83503.41;;;-146.98;100.00
28432;BME280;15664;51.302;7.744;2023-02-21T08:26:43;83538.03;;;-146.98;100.00
28432;BME280;15664;51.302;7.744;2023-02-21T08:29:10;83507.50;;;-146.98;100.00
28432;BME280;15664;51.302;7.744;2023-02-21T08:31:37;83478.97;;;-146.98;100.00
28432;BME280;15664;51.302;7.744;2023-02-21T08:34:04;83564.53;;;-146.98;100.00
28432;BME280;15664;51.302;7.744;2023-02-21T08:36:35;83511.56;;;-146.98;100.00
28432;BME280;15664;51.302;7.744;2023-02-21T08:39:01;83487.13;;;-146.98;100.00
28432;BME280;15664;51.302;7.744;2023-02-21T08:41:34;83446.41;;;-146.98;100.00
28432;BME280;15664;51.302;7.744;2023-02-21T08:44:00;83536.00;;;-146.98;100.00
28432;BME280;15664;51.302;7.744;2023-02-21T08:46:26;83521.75;;;-146.98;100.00
28432;BME280;15664;51.302;7.744;2023-02-21T08:48:51;83511.56;;;-146.98;100.00
28432;BME280;15664;51.302;7.744;2023-02-21T08:51:17;83503.41;;;-146.98;100.00
28432;BME280;15664;51.302;7.744;2023-02-21T08:53:43;83466.75;;;-146.98;100.00
28432;BME280;15664;51.302;7.744;2023-02-21T08:56:08;83497.31;;;-146.98;100.00
28432;BME280;15664;51.302;7.744;2023-02-21T08:58:34;83487.13;;;-146.98;100.00
28432;BME280;15664;51.302;7.744;2023-02-21T09:00:59;83540.06;;;-146.98;100.00
28432;BME280;15664;51.302;7.744;2023-02-21T09:03:25;83566.56;;;-146.98;100.00
28432;BME280;15664;51.302;7.744;2023-02-21T09:05:50;83495.28;;;-146.98;100.00
28432;BME280;15664;51.302;7.744;2023-02-21T09:08:16;83503.41;;;-146.98;100.00
28432;BME280;15664;51.302;7.744;2023-02-21T09:10:44;83527.84;;;-146.98;100.00
28432;BME280;15664;51.302;7.744;2023-02-21T09:13:11;83481.03;;;-146.98;100.00
28432;BME280;15664;51.302;7.744;2023-02-21T09:15:37;83493.25;;;-146.98;100.00
28432;BME280;15664;51.302;7.744;2023-02-21T09:18:03;83438.25;;;-146.98;100.00
28432;BME280;15664;51.302;7.744;2023-02-21T09:20:28;83493.25;;;-146.98;100.00
28432;BME280;15664;51.302;7.744;2023-02-21T09:22:54;83485.09;;;-146.98;100.00
28432;BME280;15664;51.302;7.744;2023-02-21T09:25:22;83491.19;;;-146.98;100.00
28432;BME280;15664;51.302;7.744;2023-02-21T09:27:50;83487.13;;;-146.98;100.00
28432;BME280;15664;51.302;7.744;2023-02-21T09:30:19;83468.81;;;-146.98;100.00
28432;BME280;15664;51.302;7.744;2023-02-21T09:32:48;83466.75;;;-146.98;100.00
28432;BME280;15664;51.302;7.744;2023-02-21T09:35:17;83495.28;;;-146.98;100.00
28432;BME280;15664;51.302;7.744;2023-02-21T09:37:44;83491.19;;;-146.98;100.00
28432;BME280;15664;51.302;7.744;2023-02-21T09:42:49;83462.69;;;-146.98;100.00
28432;BME280;15664;51.302;7.744;2023-02-21T09:45:17;83485.09;;;-146.98;100.00
28432;BME280;15664;51.302;7.744;2023-02-21T09:47:49;83478.97;;;-146.98;100.00
28432;BME280;15664;51.302;7.744;2023-02-21T09:50:18;83495.28;;;-146.98;100.00
28432;BME280;15664;51.302;7.744;2023-02-21T09:52:45;83521.75;;;-146.98;100.00
28432;BME280;15664;51.302;7.744;2023-02-21T09:55:25;83436.22;;;-146.98;100.00
28432;BME280;15664;51.302;7.744;2023-02-21T09:57:52;83533.97;;;-146.98;100.00
28432;BME280;15664;51.302;7.744;2023-02-21T10:00:20;83478.97;;;-146.98;100.00
28432;BME280;15664;51.302;7.744;2023-02-21T10:05:44;83458.63;;;-146.98;100.00
28432;BME280;15664;51.302;7.744;2023-02-21T10:08:21;83515.63;;;-146.98;100.00
28432;BME280;15664;51.302;7.744;2023-02-21T10:10:55;83483.06;;;-146.98;100.00
28432;BME280;15664;51.302;7.744;2023-02-21T10:21:29;83499.34;;;-146.98;100.00
28432;BME280;15664;51.302;7.744;2023-02-21T10:23:57;83446.41;;;-146.98;100.00
28432;BME280;15664;51.302;7.744;2023-02-21T10:26:34;83446.41;;;-146.98;100.00
28432;BME280;15664;51.302;7.744;2023-02-21T10:29:06;83466.75;;;-146.98;100.00
28432;BME280;15664;51.302;7.744;2023-02-21T10:31:41;83470.84;;;-146.98;100.00
28432;BME280;15664;51.302;7.744;2023-02-21T10:34:18;83454.53;;;-146.98;100.00
28432;BME280;15664;51.302;7.744;2023-02-21T10:36:46;83474.91;;;-146.98;100.00
28432;BME280;15664;51.302;7.744;2023-02-21T10:39:16;83531.94;;;-146.98;100.00
28432;BME280;15664;51.302;7.744;2023-02-21T10:41:43;83489.16;;;-146.98;100.00
28432;BME280;15664;51.302;7.744;2023-02-21T10:44:15;83462.69;;;-146.98;100.00
28432;BME280;15664;51.302;7.744;2023-02-21T10:46:51;83426.03;;;-146.98;100.00
28432;BME280;15664;51.302;7.744;2023-02-21T10:49:25;83572.66;;;-146.98;100.00
28432;BME280;15664;51.302;7.744;2023-02-21T10:52:04;83409.75;;;-146.98;100.00
28432;BME280;15664;51.302;7.744;2023-02-21T10:54:29;83407.69;;;-146.98;100.00
28432;BME280;15664;51.302;7.744;2023-02-21T10:56:55;83446.41;;;-146.98;100.00
28432;BME280;15664;51.302;7.744;2023-02-21T10:59:26;83421.97;;;-146.98;100.00
28432;BME280;15664;51.302;7.744;2023-02-21T11:01:53;83426.03;;;-146.98;100.00
28432;BME280;15664;51.302;7.744;2023-02-21T11:06:51;83389.38;;;-146.98;100.00
28432;BME280;15664;51.302;7.744;2023-02-21T11:09:44;83413.81;;;-146.98;100.00
28432;BME280;15664;51.302;7.744;2023-02-21T11:12:26;83470.84;;;-146.98;100.00
28432;BME280;15664;51.302;7.744;2023-02-21T11:17:24;83397.53;;;-146.98;100.00
28432;BME280;15664;51.302;7.744;2023-02-21T11:22:45;83438.25;;;-146.98;100.00
28432;BME280;15664;51.302;7.744;2023-02-21T11:28:01;83407.69;;;-146.98;100.00
28432;BME280;15664;51.302;7.744;2023-02-21T11:30:27;83428.06;;;-146.98;100.00
28432;BME280;15664;51.302;7.744;2023-02-21T11:32:55;83334.38;;;-146.98;100.00
28432;BME280;15664;51.302;7.744;2023-02-21T11:37:53;83436.22;;;-146.98;100.00
28432;BME280;15664;51.302;7.744;2023-02-21T11:43:11;83450.47;;;-146.98;100.00
28432;BME280;15664;51.302;7.744;2023-02-21T11:45:40;83328.28;;;-146.98;100.00
28432;BME280;15664;51.302;7.744;2023-02-21T11:48:12;83385.31;;;-146.98;100.00
28432;BME280;15664;51.302;7.744;2023-02-21T11:50:41;83381.22;;;-146.98;100.00
28432;BME280;15664;51.302;7.744;2023-02-21T11:53:19;83391.41;;;-146.98;100.00
28432;BME280;15664;51.302;7.744;2023-02-21T11:56:10;83307.91;;;-146.98;100.00
28432;BME280;15664;51.302;7.744;2023-02-21T12:04:24;83267.19;;;-146.98;100.00
28432;BME280;15664;51.302;7.744;2023-02-21T12:07:10;83291.63;;;-146.98;100.00
28432;BME280;15664;51.302;7.744;2023-02-21T12:12:35;83326.25;;;-146.98;100.00
28432;BME280;15664;51.302;7.744;2023-02-21T12:15:20;83291.63;;;-146.98;100.00
28432;BME280;15664;51.302;7.744;2023-02-21T12:18:00;83285.50;;;-146.98;100.00
28432;BME280;15664;51.302;7.744;2023-02-21T12:21:06;83263.09;;;-146.98;100.00
28432;BME280;15664;51.302;7.744;2023-02-21T12:23:50;83265.16;;;-146.98;100.00
28432;BME280;15664;51.302;7.744;2023-02-21T12:29:34;83330.31;;;-146.98;100.00
28432;BME280;15664;51.302;7.744;2023-02-21T12:32:18;83242.75;;;-146.98;100.00
28432;BME280;15664;51.302;7.744;2023-02-21T12:37:54;83246.81;;;-146.98;100.00
28432;BME280;15664;51.302;7.744;2023-02-21T12:44:00;83279.41;;;-146.98;100.00
28432;BME280;15664;51.302;7.744;2023-02-21T12:46:27;83252.94;;;-146.98;100.00
28432;BME280;15664;51.302;7.744;2023-02-21T12:49:22;83279.41;;;-146.98;100.00
28432;BME280;15664;51.302;7.744;2023-02-21T12:51:57;83297.72;;;-146.98;100.00
28432;BME280;15664;51.302;7.744;2023-02-21T12:57:07;83287.53;;;-146.98;100.00
28432;BME280;15664;51.302;7.744;2023-02-21T12:59:45;83271.25;;;-146.98;100.00
28432;BME280;15664;51.302;7.744;2023-02-21T13:02:40;83259.03;;;-146.98;100.00
28432;BME280;15664;51.302;7.744;2023-02-21T13:05:13;83259.03;;;-146.98;100.00
28432;BME280;15664;51.302;7.744;2023-02-21T13:07:49;83318.09;;;-146.98;100.00
28432;BME280;15664;51.302;7.744;2023-02-21T13:10:19;83263.09;;;-146.98;100.00
28432;BME280;15664;51.302;7.744;2023-02-21T13:12:55;83248.84;;;-146.98;100.00
28432;BME280;15664;51.302;7.744;2023-02-21T13:15:25;83206.09;;;-146.98;100.00
28432;BME280;15664;51.302;7.744;2023-02-21T13:18:00;83271.25;;;-146.98;100.00
28432;BME280;15664;51.302;7.744;2023-02-21T13:20:30;83257.00;;;-146.98;100.00
28432;BME280;15664;51.302;7.744;2023-02-21T13:26:51;83232.56;;;-146.98;100.00
28432;BME280;15664;51.302;7.744;2023-02-21T13:29:28;83197.94;;;-146.98;100.00
28432;BME280;15664;51.302;7.744;2023-02-21T13:32:05;83242.75;;;-146.98;100.00
28432;BME280;15664;51.302;7.744;2023-02-21T13:34:38;83222.38;;;-146.98;100.00
28432;BME280;15664;51.302;7.744;2023-02-21T13:37:07;83181.66;;;-146.98;100.00
28432;BME280;15664;51.302;7.744;2023-02-21T13:39:44;83175.53;;;-146.98;100.00
28432;BME280;15664;51.302;7.744;2023-02-21T13:42:17;83193.88;;;-146.98;100.00
28432;BME280;15664;51.302;7.744;2023-02-21T13:44:52;83204.06;;;-146.98;100.00
28432;BME280;15664;51.302;7.744;2023-02-21T13:47:21;83244.78;;;-146.98;100.00
28432;BME280;15664;51.302;7.744;2023-02-21T13:49:54;83244.78;;;-146.98;100.00
28432;BME280;15664;51.302;7.744;2023-02-21T13:57:41;83218.31;;;-146.98;100.00
28432;BME280;15664;51.302;7.744;2023-02-21T14:08:11;83210.16;;;-146.98;100.00
28432;BME280;15664;51.302;7.744;2023-02-21T14:10:45;83283.47;;;-146.98;100.00
28432;BME280;15664;51.302;7.744;2023-02-21T14:13:22;83224.41;;;-146.98;100.00
28432;BME280;15664;51.302;7.744;2023-02-21T14:15:55;83287.53;;;-146.98;100.00
28432;BME280;15664;51.302;7.744;2023-02-21T14:18:31;83250.88;;;-146.98;100.00